Time;durP1;ratioP1;P1;durP2;ratioP2;P2;SDS_P1;SDS_P2;PMS_P1;PMS_P2;Temp;Humidity;BMP_temperature;BMP_pressure;BME280_temperature;BME280_humidity;BME280_pressure;Samples;Min_cycle;Max_cycle;Signal;HPM_P1;HPM_P2
2022/12/28 00:01:33;;;;;;;20.27;6.45;;;;;;;9.62;100.00;101427.63;5113344;28;20036;-52
2022/12/28 00:04:00;;;;;;;18.17;5.73;;;;;;;9.71;100.00;101431.09;5111010;28;20063;-53
2022/12/28 00:06:26;;;;;;;11.40;5.60;;;;;;;9.71;100.00;101431.09;5110078;28;20032;-54
2022/12/28 00:08:53;;;;;;;10.25;5.70;;;;;;;9.72;100.00;101406.03;5110562;28;20067;-57
2022/12/28 00:11:21;;;;;;;16.20;5.95;;;;;;;10.01;100.00;101396.50;5111060;28;20053;-56
2022/12/28 00:13:46;;;;;;;15.25;5.85;;;;;;;9.65;100.00;101397.06;5108155;28;20059;-55
2022/12/28 00:16:35;;;;;;;16.07;5.83;;;;;;;9.94;100.00;101380.34;5109274;28;20032;-56
2022/12/28 00:19:04;;;;;;;14.25;6.07;;;;;;;9.89;100.00;101380.88;5108673;28;20039;-54
2022/12/28 00:21:31;;;;;;;21.05;5.72;;;;;;;9.86;100.00;101378.56;5116799;28;20036;-57
2022/12/28 00:23:58;;;;;;;12.95;5.10;;;;;;;9.79;100.00;101364.25;5108358;28;20029;-54
2022/12/28 00:26:27;;;;;;;16.80;5.70;;;;;;;9.85;100.00;101342.16;5112896;28;20361;-53
2022/12/28 00:28:53;;;;;;;13.57;5.72;;;;;;;9.75;100.00;101353.09;5111204;28;20039;-54
2022/12/28 00:31:18;;;;;;;15.17;6.30;;;;;;;10.00;100.00;101349.41;5095208;28;20031;-53
2022/12/28 00:33:44;;;;;;;11.52;5.55;;;;;;;9.65;100.00;101346.31;5115602;28;20063;-55
2022/12/28 00:36:11;;;;;;;;;;;;;;;9.71;100.00;101335.75;5097642;28;20024;-56
2022/12/28 00:38:38;;;;;;;11.97;5.77;;;;;;;9.74;100.00;101339.91;5104443;28;19912;-55
2022/12/28 00:41:05;;;;;;;16.05;5.80;;;;;;;9.81;100.00;101340.88;5109886;28;20273;-54
2022/12/28 00:43:31;;;;;;;15.50;5.53;;;;;;;10.03;100.00;101339.22;5096947;28;20028;-55
2022/12/28 00:45:57;;;;;;;14.93;5.68;;;;;;;9.79;100.00;101334.88;5113673;28;20081;-55
2022/12/28 00:48:23;;;;;;;17.30;6.03;;;;;;;10.00;100.00;101349.41;5117475;28;20036;-53
2022/12/28 00:50:49;;;;;;;10.77;5.27;;;;;;;9.83;100.00;101322.00;5112398;28;20118;-52
2022/12/28 00:53:16;;;;;;;15.73;5.05;;;;;;;10.01;100.00;101324.34;5103401;28;20065;-57
2022/12/28 00:55:43;;;;;;;16.83;5.75;;;;;;;10.09;100.00;101323.47;5111681;28;20028;-54
2022/12/28 00:58:09;;;;;;;28.15;7.10;;;;;;;10.06;100.00;101315.81;5108538;28;20055;-55
2022/12/28 01:00:36;;;;;;;11.03;5.23;;;;;;;10.02;100.00;101307.31;5095099;28;20044;-54
2022/12/28 01:03:03;;;;;;;16.92;5.80;;;;;;;10.21;100.00;101305.97;5092675;28;20043;-54
2022/12/28 01:05:29;;;;;;;11.50;4.93;;;;;;;10.04;100.00;101306.13;5096433;28;20086;-55
2022/12/28 01:07:56;;;;;;;;;;;;;;;9.99;100.00;101318.38;5097656;28;20032;-54
2022/12/28 01:10:21;;;;;;;13.03;5.57;;;;;;;10.19;100.00;101300.81;5116722;28;19976;-54
2022/12/28 01:12:48;;;;;;;;;;;;;;;10.06;100.00;101297.09;5121624;28;20038;-55
2022/12/28 01:15:13;;;;;;;15.73;5.50;;;;;;;10.27;100.00;101291.06;5102103;28;19912;-55
2022/12/28 01:17:39;;;;;;;8.02;5.18;;;;;;;10.24;100.00;101296.75;5119396;28;20038;-53
2022/12/28 01:20:06;;;;;;;14.60;5.27;;;;;;;10.10;100.00;101266.31;5099340;28;20064;-53
2022/12/28 01:22:31;;;;;;;;;;;;;;;10.00;100.00;101285.28;5104319;28;20433;-55
2022/12/28 01:24:58;;;;;;;16.93;5.43;;;;;;;10.07;100.00;101290.75;5101026;28;19911;-51
2022/12/28 01:27:24;;;;;;;12.48;4.38;;;;;;;10.11;100.00;101276.81;5120253;28;20256;-54
2022/12/28 01:29:50;;;;;;;13.03;5.50;;;;;;;10.14;100.00;101283.66;5116086;28;20039;-54
2022/12/28 01:32:15;;;;;;;10.27;4.90;;;;;;;10.31;100.00;101257.59;5117800;28;20036;-50
2022/12/28 01:34:41;;;;;;;17.80;5.50;;;;;;;10.33;100.00;101252.88;5122076;28;20027;-55
2022/12/28 01:37:06;;;;;;;7.03;4.47;;;;;;;10.19;100.00;101255.38;5118804;28;20032;-56
2022/12/28 01:39:33;;;;;;;10.93;4.57;;;;;;;10.28;100.00;101249.94;5119921;28;20045;-51
2022/12/28 01:42:00;;;;;;;8.77;4.70;;;;;;;10.39;100.00;101245.97;5123584;28;20024;-51
2022/12/28 01:44:38;;;;;;;10.57;4.50;;;;;;;10.55;100.00;101258.38;5121194;28;20031;-54
2022/12/28 01:47:08;;;;;;;6.95;4.35;;;;;;;10.46;100.00;101250.44;5119024;28;20028;-52
2022/12/28 01:49:58;;;;;;;8.63;4.38;;;;;;;10.36;100.00;101241.00;5102939;28;20032;-52
2022/12/28 01:52:46;;;;;;;10.52;4.90;;;;;;;10.56;100.00;101212.72;5120495;28;20092;-52
2022/12/28 01:55:20;;;;;;;7.47;4.03;;;;;;;10.52;100.00;101226.66;5120576;28;20032;-52
2022/12/28 01:57:58;;;;;;;9.57;4.63;;;;;;;10.33;100.00;101205.59;5121293;28;20036;-53
2022/12/28 02:00:25;;;;;;;9.65;4.20;;;;;;;10.53;100.00;101214.94;5102191;28;20056;-48
2022/12/28 02:02:55;;;;;;;7.72;4.00;;;;;;;10.49;100.00;101208.31;5117961;28;20031;-52
2022/12/28 02:05:25;;;;;;;11.65;5.47;;;;;;;10.52;100.00;101200.75;5118769;28;20027;-54
2022/12/28 02:08:06;;;;;;;8.90;3.97;;;;;;;10.38;100.00;101185.50;5098793;28;20024;-52
2022/12/28 02:10:34;;;;;;;14.43;4.70;;;;;;;10.41;100.00;101191.34;5116784;28;20028;-54
2022/12/28 02:13:00;;;;;;;10.70;4.82;;;;;;;10.46;100.00;101183.59;5115281;28;20088;-56
2022/12/28 02:15:26;;;;;;;14.63;4.10;;;;;;;10.53;100.00;101180.16;5101943;28;20061;-55
2022/12/28 02:17:52;;;;;;;11.30;4.38;;;;;;;10.33;100.00;101178.03;5121843;28;20038;-51
2022/12/28 02:20:18;;;;;;;15.50;4.30;;;;;;;10.44;100.00;101169.59;5104898;28;20036;-53
2022/12/28 02:22:43;;;;;;;19.00;4.97;;;;;;;10.44;100.00;101163.38;5120180;28;20265;-55
2022/12/28 02:25:39;;;;;;;10.40;4.60;;;;;;;10.39;100.00;101158.59;5116354;28;20051;-54
2022/12/28 02:28:23;;;;;;;7.30;4.25;;;;;;;10.43;100.00;101172.44;5117966;28;20031;-54
2022/12/28 02:30:55;;;;;;;11.70;5.70;;;;;;;10.51;100.00;101176.84;5100540;28;20032;-52
2022/12/28 02:33:36;;;;;;;10.23;5.57;;;;;;;10.42;100.00;101155.56;5118316;28;20032;-50
2022/12/28 02:36:10;;;;;;;8.35;4.85;;;;;;;10.33;100.00;101152.13;5103965;28;20032;-54
2022/12/28 02:38:41;;;;;;;18.20;6.65;;;;;;;10.07;100.00;101149.94;5115590;28;20028;-52
2022/12/28 02:41:25;;;;;;;12.15;6.32;;;;;;;9.90;100.00;101151.97;5104405;28;20036;-52
2022/12/28 02:43:53;;;;;;;16.95;7.55;;;;;;;9.74;100.00;101127.06;5121494;28;20032;-53
2022/12/28 02:52:25;;;;;;;15.07;6.60;;;;;;;9.87;100.00;101121.09;5120800;28;20178;-52
2022/12/28 02:58:25;;;;;;;18.85;7.28;;;;;;;9.76;100.00;101125.03;5120634;28;20034;-55
2022/12/28 03:01:10;;;;;;;26.50;10.25;;;;;;;9.93;100.00;101134.75;5115147;28;20035;-53
2022/12/28 03:04:02;;;;;;;20.15;10.48;;;;;;;9.82;100.00;101139.50;5100019;28;20032;-57
2022/12/28 03:09:47;;;;;;;20.35;9.98;;;;;;;9.88;100.00;101112.06;5101473;28;20494;-54
2022/12/28 03:12:21;;;;;;;30.00;12.50;;;;;;;9.97;100.00;101101.28;5103477;28;20061;-57
2022/12/28 03:14:52;;;;;;;39.67;18.33;;;;;;;9.98;100.00;101101.09;5119522;28;20046;-56
2022/12/28 03:31:29;;;;;;;23.33;12.18;;;;;;;10.16;100.00;101066.00;5120369;28;20093;-56
2022/12/28 03:34:07;;;;;;;20.45;11.57;;;;;;;10.36;100.00;101077.91;5102098;28;20074;-55
2022/12/28 03:36:56;;;;;;;21.35;11.07;;;;;;;10.32;100.00;101064.94;5100605;28;20050;-54
2022/12/28 03:39:40;;;;;;;16.98;10.02;;;;;;;10.23;100.00;101074.06;5098796;28;20044;-56
2022/12/28 03:45:11;;;;;;;17.88;9.77;;;;;;;10.25;100.00;101047.16;5099251;28;20020;-57
2022/12/28 03:47:40;;;;;;;19.30;10.57;;;;;;;10.53;100.00;101058.00;5114190;28;20032;-58
2022/12/28 03:50:06;;;;;;;17.13;9.63;;;;;;;10.39;100.00;101073.03;5118822;28;20272;-58
2022/12/28 03:52:32;;;;;;;18.13;11.20;;;;;;;10.45;100.00;101064.28;5096539;28;20299;-55
2022/12/28 03:54:58;;;;;;;20.45;10.90;;;;;;;10.49;100.00;101058.56;5098807;28;20036;-58
2022/12/28 03:57:24;;;;;;;17.55;10.45;;;;;;;10.47;100.00;101050.72;5093870;28;20071;-58
2022/12/28 03:59:52;;;;;;;20.30;10.00;;;;;;;10.50;100.00;101061.06;5100967;28;20062;-56
2022/12/28 04:02:18;;;;;;;17.08;10.95;;;;;;;10.67;100.00;101050.09;5098091;28;20055;-57
2022/12/28 04:04:43;;;;;;;22.03;11.33;;;;;;;10.60;100.00;101055.38;5100978;28;20036;-55
2022/12/28 04:07:09;;;;;;;17.20;9.95;;;;;;;10.66;100.00;101056.47;5100628;28;20036;-58
2022/12/28 04:09:34;;;;;;;20.60;10.77;;;;;;;10.82;100.00;101042.84;5116449;28;20068;-56
2022/12/28 04:12:01;;;;;;;15.77;9.63;;;;;;;10.72;100.00;101050.34;5100949;28;20281;-56
2022/12/28 04:14:46;;;;;;;22.73;9.10;;;;;;;10.72;100.00;101040.47;5121758;28;20264;-54
2022/12/28 04:17:12;;;;;;;15.73;8.88;;;;;;;11.13;100.00;101054.22;5119295;28;20296;-56
2022/12/28 04:19:38;;;;;;;17.07;9.17;;;;;;;11.12;100.00;101058.72;5103838;28;20060;-56
2022/12/28 04:22:03;;;;;;;19.70;10.03;;;;;;;11.10;100.00;101057.28;5103897;28;20091;-58
2022/12/28 04:24:29;;;;;;;17.67;9.40;;;;;;;11.03;100.00;101060.72;5101464;28;20024;-55
2022/12/28 04:26:55;;;;;;;13.77;8.82;;;;;;;10.97;100.00;101050.78;5100301;28;20039;-53
2022/12/28 04:29:20;;;;;;;21.75;9.45;;;;;;;11.09;100.00;101052.94;5102870;28;20035;-55
2022/12/28 04:31:55;;;;;;;19.88;9.93;;;;;;;10.89;100.00;101032.19;5107393;28;20032;-55
2022/12/28 04:34:22;;;;;;;18.17;9.27;;;;;;;10.92;100.00;101077.28;5122014;28;20059;-52
2022/12/28 04:37:03;;;;;;;18.17;9.20;;;;;;;11.09;100.00;101023.50;5099442;28;20039;-52
2022/12/28 04:39:29;;;;;;;17.88;10.73;;;;;;;11.12;100.00;101039.19;5102785;28;20276;-54
2022/12/28 04:41:54;;;;;;;19.73;9.70;;;;;;;11.25;100.00;101028.56;5116203;28;20034;-53
2022/12/28 04:44:20;;;;;;;16.60;8.97;;;;;;;11.38;100.00;101024.31;5114388;28;20040;-55
2022/12/28 04:46:45;;;;;;;19.13;9.97;;;;;;;11.35;100.00;101027.41;5117123;28;20039;-54
2022/12/28 04:49:10;;;;;;;19.97;10.10;;;;;;;11.11;100.00;101024.16;5102054;28;20038;-57
2022/12/28 04:51:36;;;;;;;19.03;10.23;;;;;;;11.40;100.00;101019.59;5113313;28;20084;-56
2022/12/28 04:54:01;;;;;;;15.80;9.40;;;;;;;11.25;100.00;101020.53;5115727;28;20059;-55
2022/12/28 04:56:27;;;;;;;18.75;9.77;;;;;;;11.17;100.00;101026.84;5117546;28;20027;-58
2022/12/28 04:58:55;;;;;;;17.13;9.80;;;;;;;11.13;100.00;101003.34;5115921;28;20099;-57
2022/12/28 05:01:21;;;;;;;14.18;8.82;;;;;;;11.00;100.00;101007.56;5120788;28;20046;-58
2022/12/28 05:03:48;;;;;;;21.67;8.77;;;;;;;11.34;100.00;100997.09;5117412;28;20058;-56
2022/12/28 05:06:16;;;;;;;16.03;9.97;;;;;;;11.24;100.00;100997.44;5115360;28;20025;-52
2022/12/28 05:08:43;;;;;;;24.50;10.80;;;;;;;11.25;100.00;100988.41;5099287;28;20275;-55
2022/12/28 05:11:15;;;;;;;22.90;10.07;;;;;;;11.45;100.00;100987.69;5118762;28;20268;-54
2022/12/28 05:13:42;;;;;;;16.63;9.33;;;;;;;11.30;100.00;101006.56;5114144;28;20031;-57
2022/12/28 05:16:11;;;;;;;15.15;7.75;;;;;;;11.30;100.00;100995.84;5120220;28;20279;-53
2022/12/28 05:18:37;;;;;;;19.00;9.37;;;;;;;11.35;100.00;100997.94;5121284;28;20043;-57
2022/12/28 05:21:05;;;;;;;14.43;8.13;;;;;;;11.33;100.00;101007.00;5121222;28;20276;-54
2022/12/28 05:23:32;;;;;;;18.17;9.20;;;;;;;11.39;100.00;100994.66;5125983;28;20062;-57
2022/12/28 05:25:58;;;;;;;14.05;8.20;;;;;;;11.15;100.00;101020.84;5126381;28;20274;-54
2022/12/28 05:28:25;;;;;;;14.40;9.32;;;;;;;11.42;100.00;101005.00;5118140;28;20054;-57
2022/12/28 05:30:57;;;;;;;19.83;8.47;;;;;;;11.87;100.00;100991.19;5119165;28;20101;-57
2022/12/28 05:33:22;;;;;;;19.60;8.30;;;;;;;11.46;100.00;100994.69;5121046;28;20310;-57
2022/12/28 05:35:48;;;;;;;19.07;7.93;;;;;;;11.29;100.00;101011.06;5121110;28;20264;-54
2022/12/28 05:38:14;;;;;;;16.77;9.82;;;;;;;11.19;100.00;100978.47;5121623;28;20075;-55
2022/12/28 05:40:40;;;;;;;15.53;7.57;;;;;;;11.13;100.00;100995.31;5128565;28;20038;-55
2022/12/28 05:43:05;;;;;;;18.73;8.63;;;;;;;11.09;100.00;100994.06;5122098;28;20028;-56
2022/12/28 05:45:31;;;;;;;13.60;7.47;;;;;;;11.22;100.00;100983.44;5099364;28;20078;-56
2022/12/28 05:47:56;;;;;;;13.77;7.77;;;;;;;11.32;100.00;101000.00;5117860;28;20032;-57
2022/12/28 05:50:21;;;;;;;14.30;8.10;;;;;;;11.39;100.00;100989.28;5104126;28;20040;-56
2022/12/28 05:52:47;;;;;;;19.30;7.95;;;;;;;11.40;100.00;100974.06;5119036;28;20032;-56
2022/12/28 05:55:13;;;;;;;15.23;7.10;;;;;;;11.51;100.00;100972.69;5121420;28;20032;-56
2022/12/28 05:57:38;;;;;;;15.18;8.30;;;;;;;11.42;100.00;100967.50;5120790;28;20032;-55
2022/12/28 06:00:04;;;;;;;16.67;7.33;;;;;;;11.45;100.00;100979.66;5098767;28;20040;-54
2022/12/28 06:02:37;;;;;;;13.57;7.27;;;;;;;11.39;100.00;100961.72;5121251;28;20034;-55
2022/12/28 06:05:02;;;;;;;15.20;6.50;;;;;;;11.65;100.00;100954.81;5118522;28;20280;-55
2022/12/28 06:07:28;;;;;;;12.40;7.00;;;;;;;11.57;100.00;100963.84;5123029;28;20118;-56
2022/12/28 06:09:54;;;;;;;14.40;7.63;;;;;;;11.42;100.00;100961.31;5121880;28;20040;-54
2022/12/28 06:12:19;;;;;;;18.73;7.37;;;;;;;11.48;100.00;100973.91;5121822;28;20034;-52
2022/12/28 06:14:45;;;;;;;9.50;6.57;;;;;;;11.61;100.00;100965.09;5121496;28;20299;-57
2022/12/28 06:17:10;;;;;;;12.93;7.80;;;;;;;11.74;100.00;100956.28;5122196;28;20028;-57
2022/12/28 06:19:36;;;;;;;16.10;6.70;;;;;;;11.65;100.00;100957.50;5123551;28;20035;-56
2022/12/28 06:22:01;;;;;;;10.80;6.67;;;;;;;11.64;100.00;100953.97;5120937;28;20043;-57
2022/12/28 06:24:27;;;;;;;12.55;6.72;;;;;;;11.57;100.00;100967.38;5119619;28;20050;-56
2022/12/28 06:26:52;;;;;;;10.80;6.30;;;;;;;11.70;100.00;100969.28;5122894;28;20046;-56
2022/12/28 06:29:18;;;;;;;9.13;6.60;;;;;;;11.84;100.00;100963.97;5117377;28;20032;-52
2022/12/28 06:31:50;;;;;;;13.73;7.10;;;;;;;11.73;100.00;100958.16;5112910;28;20036;-55
2022/12/28 06:34:16;;;;;;;11.70;6.03;;;;;;;11.93;100.00;100965.44;5114861;28;20272;-57
2022/12/28 06:36:44;;;;;;;13.85;7.10;;;;;;;11.91;100.00;100952.25;5120407;28;20276;-55
2022/12/28 06:39:11;;;;;;;10.20;6.10;;;;;;;12.00;100.00;100952.06;5116209;28;20035;-55
2022/12/28 06:41:37;;;;;;;10.73;6.57;;;;;;;12.14;100.00;100945.72;5118328;28;20298;-56
2022/12/28 06:44:08;;;;;;;14.77;6.47;;;;;;;12.07;100.00;100946.75;5123978;28;20327;-54
2022/12/28 06:46:33;;;;;;;12.93;6.73;;;;;;;12.05;100.00;100960.34;5116524;28;20287;-55
2022/12/28 06:48:59;;;;;;;12.15;6.50;;;;;;;12.00;100.00;100952.88;5118335;28;20257;-57
2022/12/28 06:51:28;;;;;;;13.10;6.85;;;;;;;12.05;100.00;100966.53;5117740;28;20071;-53
2022/12/28 06:53:53;;;;;;;16.53;7.33;;;;;;;12.18;100.00;100967.59;5121046;28;20035;-56
2022/12/28 06:56:22;;;;;;;11.55;6.45;;;;;;;11.94;100.00;100966.25;5115427;28;20281;-52
2022/12/28 06:58:49;;;;;;;12.70;6.23;;;;;;;11.99;100.00;100969.16;5117780;28;20038;-53
2022/12/28 07:01:26;;;;;;;13.48;6.70;;;;;;;11.91;100.00;100964.81;5117873;28;20275;-53
2022/12/28 07:03:53;;;;;;;9.33;6.17;;;;;;;12.24;100.00;100958.75;5121265;28;20024;-54
2022/12/28 07:06:21;;;;;;;14.10;6.63;;;;;;;12.12;100.00;100974.59;5115037;28;20048;-54
2022/12/28 07:08:48;;;;;;;16.30;6.37;;;;;;;12.03;100.00;100962.41;5116655;28;20292;-52
2022/12/28 07:11:18;;;;;;;;;;;;;;;12.14;100.00;100956.44;5118884;28;20322;-56
2022/12/28 07:13:44;;;;;;;11.70;5.67;;;;;;;12.46;100.00;100950.53;5122671;28;19916;-53
2022/12/28 07:16:12;;;;;;;11.13;6.45;;;;;;;12.15;100.00;100944.69;5119568;28;20276;-55
2022/12/28 07:18:38;;;;;;;9.10;5.43;;;;;;;12.07;100.00;100942.22;5119514;28;20046;-52
2022/12/28 07:21:25;;;;;;;11.13;5.35;;;;;;;12.17;100.00;100942.63;5118475;28;20304;-51
2022/12/28 07:23:52;;;;;;;9.13;5.32;;;;;;;12.29;100.00;100958.16;5114549;28;20028;-53
2022/12/28 07:26:20;;;;;;;8.93;5.23;;;;;;;12.15;100.00;100938.53;5116955;28;20102;-52
2022/12/28 07:28:48;;;;;;;7.33;4.70;;;;;;;12.11;100.00;100943.47;5122913;28;20319;-52
2022/12/28 07:31:16;;;;;;;10.53;5.63;;;;;;;11.97;100.00;100945.25;5101065;28;20345;-55
2022/12/28 07:33:44;;;;;;;8.50;5.27;;;;;;;12.20;100.00;100944.09;5119466;28;20351;-56
2022/12/28 07:36:12;;;;;;;19.90;5.80;;;;;;;12.25;100.00;100938.94;5113653;28;20260;-55
2022/12/28 07:38:38;;;;;;;14.93;5.87;;;;;;;12.17;100.00;100949.88;5120078;28;20276;-53
2022/12/28 07:41:06;;;;;;;15.73;5.80;;;;;;;12.11;100.00;100948.81;5118116;28;20340;-56
2022/12/28 07:43:33;;;;;;;9.30;5.50;;;;;;;12.25;100.00;100955.03;5117894;28;20038;-55
2022/12/28 07:46:07;;;;;;;11.65;5.03;;;;;;;12.27;100.00;100957.53;5117893;28;20535;-53
2022/12/28 07:48:34;;;;;;;9.50;5.40;;;;;;;12.43;100.00;100953.63;5115045;28;20031;-55
2022/12/28 07:51:25;;;;;;;9.37;4.93;;;;;;;12.44;100.00;100953.41;5118814;28;20332;-51
2022/12/28 07:53:53;;;;;;;11.13;5.17;;;;;;;12.47;100.00;100957.53;5118861;28;20284;-55
2022/12/28 07:56:19;;;;;;;12.47;5.30;;;;;;;12.44;100.00;100955.28;5116718;28;20380;-56
2022/12/28 07:58:51;;;;;;;9.63;5.03;;;;;;;12.35;100.00;100965.38;5119181;28;20276;-56
2022/12/28 08:01:19;;;;;;;11.30;5.57;;;;;;;12.32;100.00;100960.41;5116637;28;20272;-49
2022/12/28 08:03:44;;;;;;;10.37;5.07;;;;;;;12.35;100.00;100953.81;5114080;28;20268;-51
2022/12/28 08:06:12;;;;;;;11.20;4.83;;;;;;;12.56;100.00;100953.59;5116111;28;20295;-53
2022/12/28 08:08:39;;;;;;;6.77;4.60;;;;;;;12.40;100.00;100956.72;5118346;28;20023;-55
2022/12/28 08:11:07;;;;;;;8.43;5.43;;;;;;;12.73;100.00;100959.41;5121429;28;20285;-55
2022/12/28 08:13:36;;;;;;;11.87;4.93;;;;;;;12.48;100.00;100953.81;5125136;28;20280;-55
2022/12/28 08:16:03;;;;;;;8.57;4.63;;;;;;;12.45;100.00;100954.22;5116709;28;20285;-52
2022/12/28 08:18:29;;;;;;;12.30;5.28;;;;;;;12.45;100.00;100949.69;5122381;28;20277;-56
2022/12/28 08:20:59;;;;;;;8.05;4.97;;;;;;;12.45;100.00;100940.81;5113420;28;20044;-54
2022/12/28 08:23:25;;;;;;;10.20;5.40;;;;;;;12.60;100.00;100938.78;5103073;28;20027;-50
2022/12/28 08:25:50;;;;;;;10.07;5.13;;;;;;;12.58;100.00;100942.69;5108574;28;20265;-54
2022/12/28 08:28:15;;;;;;;11.93;4.93;;;;;;;12.79;100.00;100938.13;5108017;28;20036;-54
2022/12/28 08:30:41;;;;;;;12.93;5.68;;;;;;;12.43;100.00;100946.38;5108034;28;20095;-54
2022/12/28 08:33:07;;;;;;;17.98;5.22;;;;;;;12.65;100.00;100942.69;5113480;28;20033;-53
2022/12/28 08:35:32;;;;;;;13.37;5.00;;;;;;;12.73;100.00;100940.63;5089975;28;20036;-57
2022/12/28 08:37:58;;;;;;;10.67;4.77;;;;;;;12.57;100.00;100947.25;5109203;28;20284;-53
2022/12/28 08:40:28;;;;;;;8.07;4.20;;;;;;;12.53;100.00;100943.28;5107139;28;20062;-53
2022/12/28 08:42:58;;;;;;;6.77;4.43;;;;;;;12.45;100.00;100935.47;5112393;28;20032;-54
2022/12/28 08:45:24;;;;;;;11.97;4.57;;;;;;;12.63;100.00;100934.84;5114138;28;20332;-53
2022/12/28 08:47:49;;;;;;;13.68;4.80;;;;;;;12.51;100.00;100936.50;5111982;28;20261;-55
2022/12/28 08:50:15;;;;;;;10.50;4.73;;;;;;;12.48;100.00;100943.09;5105120;28;20056;-51
2022/12/28 08:52:40;;;;;;;9.83;4.83;;;;;;;12.51;100.00;100937.31;5110813;28;20081;-53
2022/12/28 08:55:06;;;;;;;8.93;4.50;;;;;;;12.38;100.00;100940.00;5113157;28;20276;-53
2022/12/28 08:57:32;;;;;;;8.40;4.88;;;;;;;12.35;100.00;100945.78;5122269;28;20036;-52
2022/12/28 08:59:58;;;;;;;9.27;5.23;;;;;;;12.43;100.00;100940.22;5121602;28;20304;-56
2022/12/28 09:02:24;;;;;;;9.50;5.53;;;;;;;12.30;100.00;100939.16;5121585;28;20332;-55
2022/12/28 09:04:49;;;;;;;12.77;5.93;;;;;;;12.66;100.00;100945.16;5122156;28;20062;-53
2022/12/28 09:07:15;;;;;;;10.73;6.40;;;;;;;12.35;100.00;100937.72;5110645;28;20272;-54
2022/12/28 09:09:40;;;;;;;13.60;6.53;;;;;;;12.15;100.00;100936.66;5113547;28;20099;-54
2022/12/28 09:12:08;;;;;;;15.73;6.90;;;;;;;12.36;100.00;100942.88;5107318;28;20047;-53
2022/12/28 09:14:34;;;;;;;16.30;7.10;;;;;;;12.43;100.00;100935.66;5111072;28;20028;-56
2022/12/28 09:17:01;;;;;;;15.07;7.70;;;;;;;12.38;100.00;100948.84;5111920;28;20280;-54
2022/12/28 09:19:26;;;;;;;18.07;8.63;;;;;;;12.23;100.00;100946.38;5109701;28;20032;-54
2022/12/28 09:21:52;;;;;;;15.80;8.00;;;;;;;12.32;100.00;100952.38;5109382;28;20028;-57
2022/12/28 09:24:18;;;;;;;21.13;7.47;;;;;;;12.38;100.00;100938.13;5110567;28;20020;-54
2022/12/28 09:26:43;;;;;;;21.83;10.23;;;;;;;12.32;100.00;100949.69;5112087;28;20055;-55
2022/12/28 09:29:12;;;;;;;17.70;7.80;;;;;;;12.56;100.00;100947.44;5116632;28;20260;-53
2022/12/28 09:31:39;;;;;;;9.80;5.90;;;;;;;12.59;100.00;100947.03;5114959;28;20036;-55
2022/12/28 09:34:10;;;;;;;20.85;7.32;;;;;;;12.29;100.00;100956.28;5107374;28;20688;-54
2022/12/28 09:36:38;;;;;;;17.13;7.70;;;;;;;12.51;100.00;100940.00;5120330;28;20039;-53
2022/12/28 09:39:07;;;;;;;23.70;7.33;;;;;;;12.41;100.00;100945.75;5111997;28;20281;-55
2022/12/28 09:41:43;;;;;;;20.03;7.73;;;;;;;12.22;100.00;100942.03;5111149;28;20280;-51
2022/12/28 09:44:26;;;;;;;13.82;6.22;;;;;;;12.18;100.00;100938.94;5107534;28;20274;-54
2022/12/28 09:47:27;;;;;;;14.40;6.97;;;;;;;12.26;100.00;100935.22;5113108;28;20051;-52
2022/12/28 09:50:24;;;;;;;18.63;6.47;;;;;;;12.46;100.00;100943.31;5091763;28;20268;-48
2022/12/28 09:53:19;;;;;;;16.23;6.25;;;;;;;12.32;100.00;100952.38;5112438;28;20280;-49
2022/12/28 09:56:02;;;;;;;22.73;8.97;;;;;;;12.44;100.00;100936.50;5115317;28;20040;-51
2022/12/28 09:58:31;;;;;;;13.30;6.90;;;;;;;12.54;100.00;100944.13;5113884;28;20269;-53
2022/12/28 10:00:59;;;;;;;16.23;5.63;;;;;;;12.58;100.00;100927.44;5114666;28;20280;-49
2022/12/28 10:03:30;;;;;;;12.17;5.23;;;;;;;12.44;100.00;100931.94;5111588;28;20294;-54
2022/12/28 10:05:57;;;;;;;15.00;5.90;;;;;;;12.72;100.00;100938.13;5109608;28;20332;-54
2022/12/28 10:08:24;;;;;;;15.80;5.57;;;;;;;12.44;100.00;100964.13;5094129;28;20282;-51
2022/12/28 10:10:51;;;;;;;11.43;5.00;;;;;;;12.62;100.00;100930.50;5114751;28;20020;-52
2022/12/28 10:13:22;;;;;;;12.23;5.17;;;;;;;12.62;100.00;100917.09;5117726;28;20284;-53
2022/12/28 10:15:49;;;;;;;9.53;5.10;;;;;;;12.79;100.00;100925.53;5111208;28;20261;-51
2022/12/28 10:18:23;;;;;;;15.40;4.70;;;;;;;12.88;100.00;100910.03;5116696;28;20269;-53
2022/12/28 10:20:49;;;;;;;11.77;5.27;;;;;;;12.60;100.00;100922.69;5115136;28;20150;-55
2022/12/28 10:23:18;;;;;;;;;;;;;;;12.60;100.00;100914.63;5110919;28;20317;-55
2022/12/28 10:25:45;;;;;;;20.23;7.33;;;;;;;12.65;100.00;100900.56;5112230;28;19934;-53
2022/12/28 10:28:10;;;;;;;12.57;5.93;;;;;;;12.61;100.00;100929.69;5093169;28;20268;-56
2022/12/28 10:31:06;;;;;;;17.38;6.07;;;;;;;12.63;100.00;100929.47;5105277;28;20284;-54
2022/12/28 10:33:41;;;;;;;18.53;7.17;;;;;;;12.81;100.00;100904.72;5106811;28;20074;-49
2022/12/28 10:36:13;;;;;;;16.43;7.10;;;;;;;13.03;100.00;100918.69;5110938;28;20268;-52
2022/12/28 10:38:42;;;;;;;14.10;5.57;;;;;;;12.90;100.00;100916.88;5114264;28;20280;-54
2022/12/28 10:41:13;;;;;;;11.03;5.47;;;;;;;12.97;100.00;100903.44;5107774;28;20285;-51
2022/12/28 10:43:40;;;;;;;18.20;5.50;;;;;;;12.88;100.00;100904.66;5103205;28;20276;-55
2022/12/28 10:46:15;;;;;;;10.97;5.13;;;;;;;12.97;100.00;100898.06;5114486;28;20288;-55
2022/12/28 10:48:48;;;;;;;14.53;6.00;;;;;;;13.04;100.00;100896.19;5122921;28;20299;-52
2022/12/28 10:51:24;;;;;;;14.93;5.80;;;;;;;12.89;100.00;100901.78;5116411;28;20276;-54
2022/12/28 10:53:53;;;;;;;12.73;6.33;;;;;;;12.96;100.00;100899.09;5117824;28;20283;-53
2022/12/28 10:56:21;;;;;;;6.00;3.80;;;;;;;12.84;100.00;100906.13;5119157;28;20898;-52
2022/12/28 10:58:49;;;;;;;9.27;4.23;;;;;;;12.75;100.00;100894.78;5091088;28;20277;-53
2022/12/28 11:01:19;;;;;;;11.97;4.00;;;;;;;12.84;100.00;100892.72;5106102;28;20273;-54
2022/12/28 11:03:56;;;;;;;14.13;5.00;;;;;;;12.64;100.00;100917.72;5112852;28;21396;-50
2022/12/28 11:06:24;;;;;;;12.73;5.63;;;;;;;12.83;100.00;100902.63;5106599;28;20283;-52
2022/12/28 11:09:12;;;;;;;12.73;5.37;;;;;;;12.67;100.00;100890.44;5109723;28;20291;-51
2022/12/28 11:11:38;;;;;;;9.82;4.60;;;;;;;12.68;100.00;100867.94;5111494;28;20261;-53
2022/12/28 11:14:25;;;;;;;10.00;4.82;;;;;;;12.48;100.00;100850.06;5111559;28;20044;-54
2022/12/28 11:16:52;;;;;;;7.07;4.50;;;;;;;12.42;100.00;100875.00;5114991;28;20032;-51
2022/12/28 11:19:17;;;;;;;7.87;5.03;;;;;;;12.70;100.00;100868.59;5113301;28;20038;-51
2022/12/28 11:21:43;;;;;;;10.50;4.82;;;;;;;12.65;100.00;100871.06;5119684;28;20260;-56
2022/12/28 11:24:17;;;;;;;5.50;3.90;;;;;;;12.73;100.00;100849.41;5120253;28;20040;-52
2022/12/28 11:26:46;;;;;;;11.57;5.67;;;;;;;12.55;100.00;100851.91;5115901;28;20032;-53
2022/12/28 11:29:14;;;;;;;10.10;4.60;;;;;;;12.65;100.00;100846.09;5119323;28;20326;-53
2022/12/28 11:32:00;;;;;;;6.27;4.30;;;;;;;12.57;100.00;100841.78;5115392;28;20288;-54
2022/12/28 11:34:29;;;;;;;11.60;6.63;;;;;;;12.61;100.00;100862.63;5118812;28;20341;-54
2022/12/28 11:36:55;;;;;;;8.83;4.60;;;;;;;12.69;100.00;100837.44;5115942;28;20264;-54
2022/12/28 11:39:24;;;;;;;6.57;4.18;;;;;;;12.55;100.00;100858.06;5116910;28;20263;-53
2022/12/28 11:41:53;;;;;;;8.37;4.10;;;;;;;12.45;100.00;100839.72;5115124;28;20059;-53
2022/12/28 11:44:21;;;;;;;8.97;4.43;;;;;;;12.64;100.00;100845.25;5117000;28;20276;-54
2022/12/28 11:47:19;;;;;;;9.13;4.27;;;;;;;12.70;100.00;100827.50;5117103;28;20264;-54
2022/12/28 11:49:46;;;;;;;8.43;4.40;;;;;;;12.61;100.00;100830.44;5119082;28;20269;-49
2022/12/28 11:52:15;;;;;;;14.63;5.30;;;;;;;12.73;100.00;100814.50;5116757;28;20024;-54